Time;durP1;ratioP1;P1;durP2;ratioP2;P2;SDS_P1;SDS_P2;PMS_P1;PMS_P2;Temp;Humidity;BMP_temperature;BMP_pressure;BME280_temperature;BME280_humidity;BME280_pressure;Samples;Min_cycle;Max_cycle;Signal;HPM_P1;HPM_P2
2023/09/07 00:02:07;;;;;;;11.57;4.40;;;;;;;16.88;70.05;98741.75;4508003;31;20052;-83
2023/09/07 00:04:34;;;;;;;11.35;4.90;;;;;;;16.74;70.84;98743.37;4507381;31;20079;-82
2023/09/07 00:07:01;;;;;;;11.07;3.95;;;;;;;17.04;70.00;98746.00;4507992;31;20070;-82
2023/09/07 00:09:28;;;;;;;10.52;4.03;;;;;;;17.33;68.32;98743.44;4507133;31;20068;-83
2023/09/07 00:11:55;;;;;;;8.77;3.97;;;;;;;17.27;68.81;98742.03;4506177;31;20108;-82
2023/09/07 00:14:22;;;;;;;10.15;4.32;;;;;;;17.39;67.66;98745.69;4492839;31;20064;-83
2023/09/07 00:16:49;;;;;;;9.38;4.20;;;;;;;16.87;69.30;98738.31;4507516;31;20147;-83
2023/09/07 00:19:16;;;;;;;12.07;4.55;;;;;;;16.99;69.00;98736.75;4506792;31;20092;-82
2023/09/07 00:21:43;;;;;;;10.15;4.35;;;;;;;17.00;68.84;98741.88;4506699;31;20540;-82
2023/09/07 00:24:10;;;;;;;9.75;4.15;;;;;;;17.29;68.12;98741.94;4506617;31;20119;-82
2023/09/07 00:26:37;;;;;;;9.73;4.50;;;;;;;17.23;68.78;98732.75;4505870;31;20122;-82
2023/09/07 00:29:04;;;;;;;8.95;3.92;;;;;;;17.13;69.52;98736.81;4506901;31;20080;-82
2023/09/07 00:31:31;;;;;;;9.77;4.07;;;;;;;16.79;70.29;98732.69;4505350;31;20565;-82
2023/09/07 00:33:58;;;;;;;9.55;4.03;;;;;;;16.60;70.58;98738.09;4505722;31;20107;-82
2023/09/07 00:36:25;;;;;;;11.12;4.30;;;;;;;16.28;72.34;98739.03;4506129;31;20087;-82
2023/09/07 00:38:51;;;;;;;9.48;4.07;;;;;;;16.18;73.15;98736.09;4505116;31;20792;-83
2023/09/07 00:41:18;;;;;;;10.25;4.45;;;;;;;16.14;73.49;98739.75;4505392;31;20155;-82
2023/09/07 00:43:45;;;;;;;10.93;4.35;;;;;;;16.70;71.43;98743.66;4505949;31;20777;-82
2023/09/07 00:46:12;;;;;;;12.68;4.30;;;;;;;16.89;70.85;98743.41;4505725;31;20143;-82
2023/09/07 00:48:39;;;;;;;11.00;4.15;;;;;;;16.39;72.68;98747.09;4506154;31;20152;-82
2023/09/07 00:51:06;;;;;;;11.43;4.60;;;;;;;17.02;70.13;98744.41;4506646;31;20101;-82
2023/09/07 00:53:34;;;;;;;11.48;4.85;;;;;;;16.61;71.10;98741.53;4506583;31;20083;-83
2023/09/07 00:56:02;;;;;;;12.25;5.12;;;;;;;16.40;73.51;98749.63;4507038;31;20103;-82
2023/09/07 00:58:29;;;;;;;9.95;4.40;;;;;;;16.46;73.05;98753.63;4492836;31;20103;-83
2023/09/07 01:00:56;;;;;;;10.88;4.65;;;;;;;16.12;74.07;98739.84;4506984;31;20084;-83
2023/09/07 01:03:23;;;;;;;12.45;5.12;;;;;;;16.14;73.40;98739.75;4492454;31;20120;-82
2023/09/07 01:06:03;;;;;;;11.18;4.53;;;;;;;16.24;72.83;98738.34;4506396;31;20096;-82
2023/09/07 01:08:36;;;;;;;10.98;4.75;;;;;;;15.92;74.82;98742.69;4492031;31;20095;-82
2023/09/07 01:11:15;;;;;;;11.10;4.45;;;;;;;16.18;74.19;98736.09;4492478;31;20123;-82
2023/09/07 01:13:43;;;;;;;12.23;4.90;;;;;;;16.23;74.69;98731.47;4506658;31;20061;-83
2023/09/07 01:16:11;;;;;;;18.87;5.07;;;;;;;16.65;73.12;98728.22;4491865;31;20107;-82
2023/09/07 01:18:39;;;;;;;10.75;4.60;;;;;;;16.33;74.95;98737.00;4506851;31;20088;-82
2023/09/07 01:21:09;;;;;;;11.45;4.37;;;;;;;16.19;74.97;98738.59;4506208;31;20065;-82
2023/09/07 01:23:42;;;;;;;9.70;4.62;;;;;;;16.54;73.76;98742.78;4505539;31;20131;-83
2023/09/07 01:26:10;;;;;;;13.43;4.53;;;;;;;16.16;75.57;98741.38;4505369;31;20156;-82
2023/09/07 01:28:37;;;;;;;11.00;5.10;;;;;;;15.97;76.32;98751.09;4504931;31;20158;-82
2023/09/07 01:31:05;;;;;;;10.30;4.68;;;;;;;16.50;73.76;98752.56;4492190;31;20099;-83
2023/09/07 01:33:32;;;;;;;10.13;4.75;;;;;;;16.35;74.03;98746.41;4506565;31;20704;-82
2023/09/07 01:36:00;;;;;;;11.30;4.55;;;;;;;16.43;72.82;98749.44;4506792;31;20088;-82
2023/09/07 01:38:27;;;;;;;10.75;4.30;;;;;;;16.51;71.20;98746.41;4507196;31;20108;-83
2023/09/07 01:40:54;;;;;;;11.40;5.00;;;;;;;16.34;71.73;98742.13;4507574;31;20092;-82
2023/09/07 01:43:21;;;;;;;9.98;4.40;;;;;;;16.32;72.02;98743.13;4507032;31;20149;-82
2023/09/07 01:45:48;;;;;;;11.98;4.87;;;;;;;16.35;70.95;98736.00;4507230;31;20100;-82
2023/09/07 01:48:15;;;;;;;9.02;4.28;;;;;;;16.06;72.28;98742.81;4506654;31;20096;-82
2023/09/07 01:50:42;;;;;;;9.27;4.60;;;;;;;15.75;74.52;98740.16;4506783;31;20064;-82
2023/09/07 01:53:09;;;;;;;11.60;5.18;;;;;;;15.96;73.92;98746.81;4492275;31;20156;-82
2023/09/07 01:55:36;;;;;;;10.15;4.28;;;;;;;15.89;74.76;98750.66;4506553;31;20113;-82
2023/09/07 01:58:03;;;;;;;10.40;4.78;;;;;;;15.77;74.63;98743.50;4506580;31;20148;-83
2023/09/07 02:00:30;;;;;;;11.12;4.75;;;;;;;16.07;74.04;98749.69;4506114;31;20096;-82
2023/09/07 02:02:57;;;;;;;11.98;4.70;;;;;;;15.84;74.37;98748.31;4506283;31;20106;-82
2023/09/07 02:05:24;;;;;;;10.27;4.40;;;;;;;15.61;75.79;98744.28;4506415;31;20104;-82
2023/09/07 02:07:51;;;;;;;9.88;4.28;;;;;;;15.75;75.63;98741.00;4506961;31;20139;-82
2023/09/07 02:10:18;;;;;;;10.32;4.50;;;;;;;16.32;71.85;98751.78;4507385;31;20128;-82
2023/09/07 02:12:46;;;;;;;11.70;4.78;;;;;;;16.14;72.19;98745.81;4507674;31;20072;-82
2023/09/07 02:15:13;;;;;;;9.55;4.10;;;;;;;16.30;71.17;98750.19;4507190;31;20100;-82
2023/09/07 02:17:40;;;;;;;12.93;4.95;;;;;;;16.11;72.50;98743.37;4492084;31;20088;-82
2023/09/07 02:20:10;;;;;;;9.15;4.28;;;;;;;16.28;72.83;98747.69;4506351;31;20091;-82
2023/09/07 02:22:38;;;;;;;11.35;4.65;;;;;;;16.51;71.78;98743.81;4506289;31;20096;-82
2023/09/07 02:25:06;;;;;;;9.23;4.10;;;;;;;16.29;72.50;98751.97;4506092;31;20156;-82
2023/09/07 02:27:35;;;;;;;10.48;4.53;;;;;;;15.91;72.76;98749.66;4505999;31;20079;-82
2023/09/07 02:30:05;;;;;;;10.55;4.10;;;;;;;16.08;72.11;98742.72;4505977;31;20068;-83
2023/09/07 02:32:32;;;;;;;11.82;4.45;;;;;;;16.01;71.13;98752.59;4492221;31;20064;-82
2023/09/07 02:34:59;;;;;;;10.18;4.37;;;;;;;16.15;69.98;98749.25;4505934;31;20092;-82
2023/09/07 02:37:26;;;;;;;10.32;4.65;;;;;;;15.79;71.79;98747.72;4506338;31;20093;-82
2023/09/07 02:39:54;;;;;;;9.35;4.35;;;;;;;15.59;72.53;98751.31;4506393;31;20088;-82
2023/09/07 02:42:21;;;;;;;11.38;4.60;;;;;;;15.41;74.07;98744.44;4506410;31;20143;-82
2023/09/07 02:44:48;;;;;;;10.60;4.78;;;;;;;15.28;75.10;98738.19;4506019;31;20115;-82
2023/09/07 02:47:16;;;;;;;10.77;4.72;;;;;;;15.91;72.79;98747.06;4505782;31;20111;-82
2023/09/07 02:49:43;;;;;;;9.98;4.20;;;;;;;16.16;71.31;98743.13;4506080;31;20068;-82
2023/09/07 02:52:10;;;;;;;9.68;4.40;;;;;;;16.02;72.39;98745.63;4505595;31;20071;-82
2023/09/07 02:54:37;;;;;;;10.63;4.30;;;;;;;16.17;71.64;98742.22;4506168;31;20110;-83
2023/09/07 02:57:04;;;;;;;9.23;3.80;;;;;;;15.97;72.86;98745.91;4507114;31;20135;-82
2023/09/07 02:59:31;;;;;;;10.30;4.43;;;;;;;15.80;73.42;98744.19;4508323;31;20080;-82
2023/09/07 03:01:58;;;;;;;11.68;4.55;;;;;;;16.41;69.69;98748.69;4508400;31;20439;-82
2023/09/07 03:04:25;;;;;;;9.32;4.10;;;;;;;16.30;69.62;98750.19;4507673;31;20095;-82
2023/09/07 03:06:52;;;;;;;10.43;4.53;;;;;;;16.10;69.50;98746.91;4507357;31;20094;-82
2023/09/07 03:09:19;;;;;;;9.50;3.92;;;;;;;15.83;70.08;98749.22;4507882;31;20077;-82
2023/09/07 03:11:46;;;;;;;11.15;4.62;;;;;;;15.99;69.36;98748.41;4507953;31;20096;-82
2023/09/07 03:14:14;;;;;;;8.98;4.30;;;;;;;15.64;70.01;98742.47;4507513;31;20106;-82
2023/09/07 03:16:41;;;;;;;9.77;4.35;;;;;;;15.30;71.47;98742.41;4508115;31;20170;-82
2023/09/07 03:19:08;;;;;;;10.02;4.43;;;;;;;15.66;70.97;98749.28;4507935;31;20076;-82
2023/09/07 03:21:35;;;;;;;10.13;4.47;;;;;;;15.65;71.19;98758.00;4507382;31;20068;-83
2023/09/07 03:24:02;;;;;;;10.55;4.78;;;;;;;15.32;73.37;98758.78;4507715;31;20484;-82
2023/09/07 03:26:29;;;;;;;10.75;4.35;;;;;;;15.69;73.52;98751.72;4507466;31;20057;-82
2023/09/07 03:28:57;;;;;;;12.75;4.95;;;;;;;15.53;74.05;98746.44;4506696;31;20096;-82
2023/09/07 03:31:24;;;;;;;12.90;4.82;;;;;;;15.13;76.89;98752.81;4507007;31;20088;-83
2023/09/07 03:33:51;;;;;;;11.90;4.82;;;;;;;15.50;75.55;98749.19;4507359;31;20099;-82
2023/09/07 03:36:18;;;;;;;10.60;4.35;;;;;;;15.34;75.87;98759.53;4506414;31;20450;-82
2023/09/07 03:38:45;;;;;;;11.20;4.37;;;;;;;15.80;72.94;98759.78;4507221;31;20072;-82
2023/09/07 03:41:12;;;;;;;9.40;4.32;;;;;;;16.03;70.21;98757.72;4507157;31;20096;-83
2023/09/07 03:43:39;;;;;;;11.48;4.90;;;;;;;15.47;72.37;98753.72;4506300;31;20109;-82
2023/09/07 03:46:06;;;;;;;11.88;4.85;;;;;;;16.01;70.56;98759.59;4506851;31;20100;-82
2023/09/07 03:48:33;;;;;;;11.30;4.90;;;;;;;15.80;71.92;98757.19;4492227;31;20084;-82
2023/09/07 03:51:06;;;;;;;11.15;4.82;;;;;;;15.43;74.90;98754.81;4506994;31;20100;-83
2023/09/07 03:53:33;;;;;;;13.60;4.75;;;;;;;15.46;75.30;98752.03;4506600;31;20096;-82
2023/09/07 03:56:03;;;;;;;12.68;5.57;;;;;;;15.43;75.83;98755.62;4506537;31;21225;-82
2023/09/07 03:58:31;;;;;;;10.40;4.53;;;;;;;15.21;76.95;98758.50;4507010;31;20454;-82
2023/09/07 04:00:59;;;;;;;10.13;4.62;;;;;;;15.23;76.81;98758.41;4507337;31;20111;-82
2023/09/07 04:03:26;;;;;;;12.98;4.90;;;;;;;15.76;72.72;98765.25;4492734;31;20123;-83
2023/09/07 04:05:55;;;;;;;10.30;4.53;;;;;;;15.44;72.98;98751.28;4506106;31;20087;-82
2023/09/07 04:08:22;;;;;;;10.80;5.28;;;;;;;15.43;73.43;98767.81;4506878;31;20143;-82
2023/09/07 04:10:49;;;;;;;12.80;5.12;;;;;;;15.97;71.64;98774.53;4506476;31;20112;-82
2023/09/07 04:13:16;;;;;;;11.30;5.00;;;;;;;15.70;72.96;98774.19;4507070;31;20092;-82
2023/09/07 04:15:45;;;;;;;11.27;4.82;;;;;;;15.94;72.67;98766.87;4506740;31;20542;-82
2023/09/07 04:18:15;;;;;;;11.85;4.87;;;;;;;15.81;71.46;98773.66;4506656;31;20091;-82
2023/09/07 04:20:43;;;;;;;12.95;5.28;;;;;;;15.98;71.37;98776.22;4506723;31;20107;-83
2023/09/07 04:23:10;;;;;;;12.68;5.28;;;;;;;15.81;72.52;98768.44;4506886;31;20088;-83
2023/09/07 04:25:40;;;;;;;10.32;4.65;;;;;;;15.58;74.15;98773.03;4505940;31;20118;-82
2023/09/07 04:28:08;;;;;;;12.13;4.72;;;;;;;15.99;73.08;98770.06;4492211;31;20142;-83
2023/09/07 04:30:39;;;;;;;14.38;5.53;;;;;;;15.83;73.74;98771.78;4491592;31;20104;-82
2023/09/07 04:33:06;;;;;;;12.32;4.95;;;;;;;15.53;75.25;98775.06;4506124;31;20110;-82
2023/09/07 04:35:33;;;;;;;13.02;5.32;;;;;;;15.45;75.15;98765.97;4505833;31;20075;-83
2023/09/07 04:38:00;;;;;;;11.23;4.80;;;;;;;15.65;73.21;98772.78;4492312;31;20713;-83
2023/09/07 04:40:27;;;;;;;13.62;4.80;;;;;;;15.84;71.22;98776.06;4506846;31;20105;-83
2023/09/07 04:42:54;;;;;;;11.00;4.62;;;;;;;15.72;71.27;98772.34;4506704;31;20095;-83
2023/09/07 04:45:21;;;;;;;10.88;4.80;;;;;;;15.85;70.05;98783.81;4505597;31;20147;-83
2023/09/07 04:47:49;;;;;;;12.80;4.40;;;;;;;15.68;71.14;98773.44;4505686;31;20152;-83
2023/09/07 04:50:16;;;;;;;12.65;4.85;;;;;;;16.01;70.43;98789.06;4491719;31;20112;-83
2023/09/07 04:52:43;;;;;;;10.35;4.70;;;;;;;15.83;70.02;98782.19;4504856;31;20100;-83
2023/09/07 04:55:11;;;;;;;13.62;4.65;;;;;;;15.45;72.34;98790.22;4504754;31;20502;-83
2023/09/07 04:57:38;;;;;;;11.73;4.60;;;;;;;15.65;71.81;98786.63;4504729;31;20139;-83
2023/09/07 05:00:07;;;;;;;9.77;4.47;;;;;;;15.52;73.27;98785.50;4504155;31;20107;-83
2023/09/07 05:02:40;;;;;;;14.48;4.70;;;;;;;15.53;73.55;98789.81;4504452;31;20096;-83
2023/09/07 05:05:07;;;;;;;13.03;4.67;;;;;;;15.74;73.22;98788.75;4491017;31;20154;-84
2023/09/07 05:07:34;;;;;;;16.35;5.12;;;;;;;16.43;71.02;98795.47;4504221;31;20466;-83
2023/09/07 05:10:02;;;;;;;15.50;4.97;;;;;;;16.42;71.26;98794.63;4504211;31;20096;-84
2023/09/07 05:12:29;;;;;;;18.02;5.30;;;;;;;16.63;71.73;98797.00;4504485;31;20144;-83
2023/09/07 05:14:57;;;;;;;18.77;5.22;;;;;;;16.97;73.34;98807.22;4504454;31;20128;-83
2023/09/07 05:17:24;;;;;;;24.63;5.43;;;;;;;17.93;67.35;98804.22;4504169;31;20096;-84
2023/09/07 05:19:51;;;;;;;16.40;4.95;;;;;;;19.34;63.00;98803.94;4503821;31;20100;-83
2023/09/07 05:22:19;;;;;;;18.75;5.25;;;;;;;20.48;57.52;98805.75;4489673;31;20124;-83
2023/09/07 05:24:47;;;;;;;16.58;4.50;;;;;;;21.61;53.94;98805.31;4504693;31;20159;-84
2023/09/07 05:27:14;;;;;;;14.63;4.47;;;;;;;22.73;51.42;98815.00;4503150;31;20144;-84
2023/09/07 05:29:41;;;;;;;13.85;4.65;;;;;;;23.55;49.40;98808.22;4489516;31;20164;-82
2023/09/07 05:32:10;;;;;;;16.25;4.82;;;;;;;24.49;46.38;98804.56;4504981;31;20110;-84
2023/09/07 05:34:37;;;;;;;20.00;6.50;;;;;;;25.32;44.27;98808.56;4503200;31;20084;-81
2023/09/07 05:37:04;;;;;;;14.00;5.18;;;;;;;26.16;42.81;98815.78;4503986;31;20052;-85
2023/09/07 05:39:31;;;;;;;12.68;4.82;;;;;;;27.03;41.44;98808.22;4504407;31;20438;-85
2023/09/07 05:41:58;;;;;;;10.50;4.68;;;;;;;27.65;38.41;98808.25;4503222;31;20136;-84
2023/09/07 05:44:25;;;;;;;10.38;4.75;;;;;;;28.63;36.24;98803.44;4503964;31;20087;-82
2023/09/07 05:46:52;;;;;;;11.60;5.07;;;;;;;28.87;35.53;98810.63;4503442;31;20092;-85
2023/09/07 05:49:19;;;;;;;9.65;4.50;;;;;;;29.79;34.65;98813.03;4502969;31;20096;-85
2023/09/07 05:51:46;;;;;;;10.70;4.60;;;;;;;30.37;34.62;98825.19;4503445;31;20449;-84
2023/09/07 05:54:13;;;;;;;9.55;4.35;;;;;;;30.86;36.15;98826.81;4489228;31;20105;-82
2023/09/07 05:56:40;;;;;;;10.88;4.50;;;;;;;31.41;33.45;98821.28;4503229;31;20098;-79
2023/09/07 05:59:07;;;;;;;10.43;4.30;;;;;;;31.51;32.21;98821.84;4503010;31;20104;-78
2023/09/07 06:01:34;;;;;;;11.90;4.80;;;;;;;31.55;31.08;98822.31;4503191;31;20151;-79
2023/09/07 06:04:01;;;;;;;9.57;3.97;;;;;;;30.93;31.92;98823.25;4502664;31;20166;-79
2023/09/07 06:06:29;;;;;;;10.50;4.30;;;;;;;31.02;31.72;98818.69;4503170;31;20133;-79
2023/09/07 06:08:57;;;;;;;9.45;4.12;;;;;;;30.88;32.26;98822.97;4502767;31;20115;-79
2023/09/07 06:11:23;;;;;;;8.95;4.30;;;;;;;30.66;32.89;98824.59;4503162;31;20158;-79
2023/09/07 06:13:51;;;;;;;10.02;4.68;;;;;;;31.07;31.99;98827.84;4503116;31;20135;-79
2023/09/07 06:16:18;;;;;;;9.23;4.57;;;;;;;31.08;32.07;98824.16;4502733;31;20109;-79
2023/09/07 06:18:46;;;;;;;10.30;4.57;;;;;;;30.44;33.60;98826.16;4503059;31;20100;-79
2023/09/07 06:21:13;;;;;;;9.00;4.12;;;;;;;30.26;34.61;98817.56;4503031;31;20088;-79
2023/09/07 06:23:40;;;;;;;11.73;4.50;;;;;;;29.26;36.41;98825.00;4502577;31;20106;-79
2023/09/07 06:26:07;;;;;;;11.48;4.10;;;;;;;29.50;36.31;98821.53;4502584;31;20460;-80
2023/09/07 06:28:34;;;;;;;8.77;3.72;;;;;;;28.04;38.62;98813.13;4501979;31;20160;-78
2023/09/07 06:31:01;;;;;;;8.93;3.87;;;;;;;26.76;39.24;98827.59;4502680;31;20132;-78
2023/09/07 06:33:28;;;;;;;9.55;3.95;;;;;;;27.24;38.66;98830.91;4502968;31;20075;-80
2023/09/07 06:35:57;;;;;;;11.25;4.40;;;;;;;27.24;39.81;98828.25;4503119;31;20171;-79
2023/09/07 06:38:23;;;;;;;12.68;3.72;;;;;;;27.58;38.14;98831.03;4507520;31;20119;-80
2023/09/07 06:40:50;;;;;;;12.40;4.43;;;;;;;25.76;40.82;98835.37;4506683;31;20375;-80
2023/09/07 06:43:17;;;;;;;9.05;3.53;;;;;;;26.08;41.55;98826.25;4506621;31;20071;-80
2023/09/07 06:45:44;;;;;;;13.30;4.20;;;;;;;25.84;41.45;98839.91;4494538;31;20080;-80
2023/09/07 06:48:12;;;;;;;12.25;3.75;;;;;;;25.59;42.09;98825.47;4516259;31;20068;-80
2023/09/07 06:50:39;;;;;;;8.77;3.90;;;;;;;26.13;41.51;98835.37;4513990;31;20106;-80
2023/09/07 06:53:06;;;;;;;8.52;3.42;;;;;;;26.30;40.79;98841.75;4506272;31;20096;-80
2023/09/07 06:55:34;;;;;;;12.20;4.07;;;;;;;26.21;40.50;98837.31;4506598;31;20071;-80
2023/09/07 06:58:01;;;;;;;8.45;3.50;;;;;;;26.44;39.61;98841.28;4508569;31;20124;-80
2023/09/07 07:00:28;;;;;;;8.45;3.65;;;;;;;27.01;38.41;98843.72;4508222;31;20100;-81
2023/09/07 07:02:55;;;;;;;8.82;3.72;;;;;;;26.36;39.52;98842.94;4509764;31;20066;-80
2023/09/07 07:05:30;;;;;;;9.43;3.80;;;;;;;26.40;39.10;98849.66;4513224;31;20060;-81
2023/09/07 07:07:58;;;;;;;7.32;3.45;;;;;;;26.47;39.44;98846.28;4505617;31;20159;-82
2023/09/07 07:10:25;;;;;;;7.62;3.42;;;;;;;26.01;40.06;98836.53;4503769;31;20104;-81
2023/09/07 07:12:52;;;;;;;8.38;3.42;;;;;;;27.02;38.47;98842.78;4502122;31;20103;-82
2023/09/07 07:15:18;;;;;;;9.13;3.87;;;;;;;27.59;37.64;98843.28;4502335;31;20155;-81
2023/09/07 07:17:45;;;;;;;8.70;3.28;;;;;;;27.10;37.61;98848.16;4513301;31;20105;-81
2023/09/07 07:20:12;;;;;;;10.00;3.30;;;;;;;26.90;38.06;98843.94;4514106;31;20084;-81
2023/09/07 07:22:39;;;;;;;8.23;3.65;;;;;;;26.61;40.40;98855.56;4509147;31;20155;-82
2023/09/07 07:25:06;;;;;;;8.48;3.50;;;;;;;26.59;38.47;98854.03;4502318;31;20418;-80
2023/09/07 07:27:33;;;;;;;9.02;3.80;;;;;;;26.15;38.58;98843.19;4506089;31;20136;-83
2023/09/07 07:30:00;;;;;;;11.12;3.60;;;;;;;26.12;38.97;98854.88;4514572;31;20056;-80
2023/09/07 07:32:27;;;;;;;8.68;3.58;;;;;;;25.90;40.35;98842.00;4506001;31;20064;-81
2023/09/07 07:34:54;;;;;;;8.27;3.20;;;;;;;26.26;39.68;98845.62;4504882;31;20467;-82
2023/09/07 07:37:21;;;;;;;10.55;3.50;;;;;;;26.92;39.08;98845.47;4506465;31;20088;-82
2023/09/07 07:39:48;;;;;;;7.22;3.20;;;;;;;27.75;37.87;98840.78;4503874;31;20103;-81
2023/09/07 07:42:15;;;;;;;7.57;3.33;;;;;;;26.94;38.24;98846.16;4509665;31;20052;-84
2023/09/07 07:44:42;;;;;;;10.05;3.83;;;;;;;27.44;38.29;98848.31;4514224;31;20072;-84
2023/09/07 07:47:09;;;;;;;9.30;3.70;;;;;;;27.26;37.54;98845.66;4506341;31;20148;-83
2023/09/07 07:49:36;;;;;;;11.38;3.58;;;;;;;26.93;39.55;98847.16;4507860;31;20140;-83
2023/09/07 07:52:04;;;;;;;7.22;3.40;;;;;;;26.97;39.21;98852.97;4506803;31;20118;-83
2023/09/07 07:54:33;;;;;;;11.40;3.87;;;;;;;26.93;38.28;98851.59;4508981;31;20056;-80
2023/09/07 07:57:00;;;;;;;8.27;3.42;;;;;;;26.63;39.19;98853.59;4507659;31;20437;-81
2023/09/07 07:59:27;;;;;;;8.32;3.45;;;;;;;27.07;37.83;98853.75;4507311;31;20096;-82
2023/09/07 08:01:54;;;;;;;9.38;3.53;;;;;;;25.98;39.38;98846.59;4506753;31;20087;-82
2023/09/07 08:04:21;;;;;;;11.30;3.47;;;;;;;27.08;37.76;98853.59;4494295;31;20071;-80
2023/09/07 08:06:48;;;;;;;8.07;3.45;;;;;;;26.81;37.96;98849.16;4512168;31;20072;-82
2023/09/07 08:09:16;;;;;;;8.30;3.60;;;;;;;26.47;39.06;98846.28;4508762;31;20100;-82
2023/09/07 08:11:42;;;;;;;9.35;3.42;;;;;;;26.94;39.05;98855.91;4511286;31;20103;-82
2023/09/07 08:14:10;;;;;;;8.73;3.50;;;;;;;27.46;37.90;98861.41;4515134;31;20135;-82
2023/09/07 08:16:37;;;;;;;9.05;3.58;;;;;;;26.97;38.40;98861.75;4515459;31;20076;-84
2023/09/07 08:19:04;;;;;;;10.77;3.75;;;;;;;26.50;39.13;98856.59;4503232;31;20083;-81
2023/09/07 08:21:31;;;;;;;8.75;3.70;;;;;;;26.80;39.37;98862.56;4511791;31;20093;-80
2023/09/07 08:24:00;;;;;;;9.38;3.72;;;;;;;27.06;38.80;98850.28;4503520;31;20120;-80
2023/09/07 08:26:26;;;;;;;9.93;3.60;;;;;;;28.09;37.35;98854.09;4503558;31;20144;-81
2023/09/07 08:28:53;;;;;;;10.68;3.65;;;;;;;27.62;38.18;98853.56;4489469;31;20172;-80
2023/09/07 08:31:22;;;;;;;13.82;4.20;;;;;;;27.53;37.72;98860.63;4503311;31;20147;-81
2023/09/07 08:33:51;;;;;;;9.38;3.87;;;;;;;27.67;37.78;98848.69;4503693;31;20107;-80
2023/09/07 08:36:22;;;;;;;9.38;3.60;;;;;;;27.03;38.88;98847.94;4503687;31;20106;-82
2023/09/07 08:38:53;;;;;;;7.93;3.92;;;;;;;27.10;38.88;98854.28;4503773;31;20125;-81
2023/09/07 08:41:21;;;;;;;10.10;3.90;;;;;;;27.72;37.29;98842.91;4503671;31;20106;-82
2023/09/07 08:43:49;;;;;;;10.15;3.70;;;;;;;29.24;34.59;98842.94;4503680;31;20144;-81
2023/09/07 08:46:22;;;;;;;7.28;3.15;;;;;;;28.10;35.78;98837.19;4489393;31;20122;-80
2023/09/07 08:48:50;;;;;;;7.78;3.50;;;;;;;27.04;36.80;98839.00;4503765;31;20148;-81
2023/09/07 08:51:18;;;;;;;9.48;4.05;;;;;;;27.72;37.91;98843.75;4502673;31;20110;-81
2023/09/07 08:53:46;;;;;;;9.38;3.85;;;;;;;27.50;37.04;98842.37;4489283;31;20098;-82
2023/09/07 08:56:14;;;;;;;8.10;3.22;;;;;;;28.35;35.19;98832.88;4489534;31;20100;-81
2023/09/07 08:58:42;;;;;;;8.57;3.70;;;;;;;27.74;35.71;98830.31;4503275;31;20104;-81
2023/09/07 09:01:09;;;;;;;9.50;3.33;;;;;;;28.05;35.53;98828.03;4503579;31;20170;-81
2023/09/07 09:03:36;;;;;;;9.07;3.72;;;;;;;27.46;37.08;98830.44;4503552;31;20140;-81
2023/09/07 09:06:07;;;;;;;7.53;3.60;;;;;;;28.14;35.86;98843.00;4503134;31;20446;-81
2023/09/07 09:08:44;;;;;;;9.18;3.70;;;;;;;28.63;35.33;98838.78;4503445;31;20167;-81
2023/09/07 09:11:11;;;;;;;8.38;3.72;;;;;;;28.83;34.90;98833.22;4503254;31;20453;-82
2023/09/07 09:13:40;;;;;;;8.02;3.50;;;;;;;27.97;36.53;98831.50;4503503;31;20134;-80
2023/09/07 09:16:08;;;;;;;9.25;3.97;;;;;;;27.25;36.83;98821.97;4489222;31;20112;-81
2023/09/07 09:18:36;;;;;;;10.82;3.97;;;;;;;27.81;37.00;98818.94;4503113;31;20143;-81
2023/09/07 09:21:05;;;;;;;9.57;3.90;;;;;;;27.10;37.47;98824.31;4503440;31;20107;-81
2023/09/07 09:23:32;;;;;;;9.13;3.90;;;;;;;27.15;38.01;98827.34;4503562;31;20085;-80
2023/09/07 09:26:04;;;;;;;8.68;3.80;;;;;;;26.97;38.66;98824.66;4488579;31;20165;-81
2023/09/07 09:28:32;;;;;;;8.05;3.55;;;;;;;26.38;37.94;98820.72;4503365;31;20156;-82
2023/09/07 09:31:00;;;;;;;9.40;3.70;;;;;;;26.53;37.61;98823.69;4503404;31;20434;-81
2023/09/07 09:33:30;;;;;;;9.52;4.40;;;;;;;26.45;37.66;98829.72;4502978;31;20149;-81
2023/09/07 09:35:57;;;;;;;9.77;3.75;;;;;;;27.65;37.08;98832.12;4503341;31;20122;-82
2023/09/07 09:38:25;;;;;;;10.05;3.95;;;;;;;26.65;38.17;98817.22;4488952;31;20155;-82
2023/09/07 09:40:52;;;;;;;7.37;3.58;;;;;;;26.91;36.68;98832.41;4502724;31;20098;-81
2023/09/07 09:43:20;;;;;;;7.75;3.37;;;;;;;27.87;34.03;98828.94;4503331;31;20110;-81
2023/09/07 09:45:50;;;;;;;8.73;3.95;;;;;;;27.29;34.86;98828.63;4503212;31;20100;-81
2023/09/07 09:48:21;;;;;;;10.38;3.62;;;;;;;27.48;36.08;98833.75;4488937;31;20115;-81
2023/09/07 09:50:49;;;;;;;7.90;3.70;;;;;;;27.59;34.67;98822.91;4503477;31;20076;-81
2023/09/07 09:53:20;;;;;;;8.45;3.35;;;;;;;28.35;33.64;98824.91;4503016;31;20072;-81
2023/09/07 09:55:48;;;;;;;9.57;3.60;;;;;;;28.01;34.28;98816.91;4489215;31;20490;-80
2023/09/07 09:58:16;;;;;;;9.73;4.22;;;;;;;28.16;35.05;98833.06;4503357;31;20104;-81
2023/09/07 10:00:44;;;;;;;9.13;3.70;;;;;;;27.97;35.26;98831.50;4502938;31;20806;-81
2023/09/07 10:03:33;;;;;;;10.73;3.80;;;;;;;26.77;37.15;98823.12;4489046;31;20076;-81
2023/09/07 10:06:10;;;;;;;9.10;3.62;;;;;;;27.34;36.92;98819.25;4503074;31;20104;-81
2023/09/07 10:08:37;;;;;;;8.75;3.87;;;;;;;26.70;36.86;98825.56;4502709;31;20107;-81
2023/09/07 10:11:11;;;;;;;7.80;3.62;;;;;;;27.91;35.88;98813.53;4503181;31;20162;-81
2023/09/07 10:13:38;;;;;;;7.22;3.20;;;;;;;27.94;35.14;98811.41;4503200;31;20068;-80
2023/09/07 10:16:09;;;;;;;9.10;3.97;;;;;;;27.41;36.32;98808.03;4502702;31;20156;-81
2023/09/07 10:18:38;;;;;;;9.13;3.83;;;;;;;28.38;35.96;98816.62;4503118;31;20200;-80
2023/09/07 10:21:06;;;;;;;8.52;3.47;;;;;;;28.47;35.18;98809.50;4502945;31;20106;-81
2023/09/07 10:23:41;;;;;;;11.50;3.95;;;;;;;27.59;35.52;98808.84;4502582;31;20085;-81
2023/09/07 10:26:14;;;;;;;8.90;3.72;;;;;;;27.94;35.79;98798.13;4502473;31;20136;-81
2023/09/07 10:28:41;;;;;;;9.13;3.87;;;;;;;28.15;34.78;98803.06;4502431;31;20123;-82
2023/09/07 10:31:19;;;;;;;7.72;3.42;;;;;;;28.43;34.76;98808.19;4502673;31;20147;-81
2023/09/07 10:33:46;;;;;;;7.85;3.35;;;;;;;28.93;33.57;98816.16;4502704;31;20137;-81
2023/09/07 10:36:25;;;;;;;8.85;3.60;;;;;;;28.70;32.58;98807.09;4502350;31;20100;-80
2023/09/07 10:38:54;;;;;;;8.10;3.37;;;;;;;28.87;32.04;98807.97;4502515;31;20108;-80
2023/09/07 10:41:22;;;;;;;9.88;3.78;;;;;;;29.63;32.50;98797.09;4488485;31;20429;-80
2023/09/07 10:43:50;;;;;;;11.25;3.85;;;;;;;29.31;31.61;98797.91;4488131;31;20140;-80
2023/09/07 10:46:20;;;;;;;9.00;3.58;;;;;;;29.26;31.74;98801.06;4502699;31;20461;-80
2023/09/07 10:48:53;;;;;;;7.87;3.00;;;;;;;29.11;32.19;98792.09;4502521;31;20492;-80
2023/09/07 10:51:20;;;;;;;6.82;2.80;;;;;;;28.52;32.69;98794.78;4502263;31;20447;-80
2023/09/07 10:53:47;;;;;;;7.50;3.12;;;;;;;27.93;31.72;98791.16;4502617;31;20084;-80
2023/09/07 10:56:14;;;;;;;7.97;3.60;;;;;;;28.48;31.75;98796.06;4488260;31;20104;-80
2023/09/07 10:58:43;;;;;;;9.70;3.50;;;;;;;29.56;31.13;98796.94;4502181;31;20111;-80
2023/09/07 11:01:10;;;;;;;10.25;3.92;;;;;;;29.71;30.00;98785.59;4502465;31;20144;-80
2023/09/07 11:03:40;;;;;;;9.73;4.05;;;;;;;29.27;29.59;98794.75;4501981;31;20145;-80
2023/09/07 11:06:11;;;;;;;8.98;3.47;;;;;;;29.09;31.69;98796.75;4488299;31;20443;-80
2023/09/07 11:08:38;;;;;;;7.72;3.37;;;;;;;28.97;31.29;98798.06;4488087;31;20416;-80
2023/09/07 11:11:05;;;;;;;6.93;3.17;;;;;;;28.43;31.35;98792.25;4502221;31;20112;-80
2023/09/07 11:13:32;;;;;;;8.48;3.60;;;;;;;28.78;31.34;98784.06;4502251;31;20139;-80
2023/09/07 11:16:00;;;;;;;8.88;3.20;;;;;;;28.52;32.68;98781.50;4504016;31;20088;-79
2023/09/07 11:18:27;;;;;;;11.23;3.35;;;;;;;29.21;31.20;98787.44;4504135;31;20104;-80
2023/09/07 11:20:56;;;;;;;7.95;3.47;;;;;;;29.38;30.97;98780.31;4504247;31;20092;-80
2023/09/07 11:23:24;;;;;;;8.45;3.72;;;;;;;29.06;30.96;98775.81;4504391;31;20076;-81
2023/09/07 11:25:51;;;;;;;8.63;3.50;;;;;;;29.69;29.83;98772.50;4503811;31;20091;-80
2023/09/07 11:28:20;;;;;;;7.72;3.42;;;;;;;29.65;30.90;98773.81;4489951;31;20237;-81
2023/09/07 11:30:54;;;;;;;8.23;3.72;;;;;;;29.91;30.77;98771.75;4504196;31;20127;-81
2023/09/07 11:33:25;;;;;;;9.90;3.87;;;;;;;30.38;30.29;98778.09;4476769;31;20457;-81